Leeswood, United Kingdom
Current Conditions -  °F | °C
As of 2:20 PM on Thursday 29 Jan 2015 (Local Time) from EGNR Reporting Station
Rain Showers Rain Showers  
Wind Chill: 28°   Ceiling: 2500
Heat Index: 37°   Visibility: 6mi
Dew Point: 32°   Wind: 17mph
Humidity: 81%   Direction: 280°W
Pressure: 28.85"   Gusts: NA
Location:  53.13°N, 3.09°W
Report Text: EGNR 291420Z 28015KT 260V320 9000 VCSH SCT010CB BKN025 03/00 Q0977 RESHSN
Loading
Personal Weather Stations






























Interactive Weather Map New forecast layout! Learn more

10-Day Weather Forecast

Advertisements
Track Severe Weather on mobile